createdAt,value
2022-09-02T00:02:03.270Z,16.76
2022-09-02T00:04:51.894Z,16.86
2022-09-02T00:07:40.480Z,16.88
2022-09-02T00:10:30.467Z,16.81
2022-09-02T00:13:21.070Z,16.50
2022-09-02T00:16:10.917Z,16.60
2022-09-02T00:19:00.278Z,16.45
2022-09-02T00:21:49.464Z,16.43
2022-09-02T00:24:38.451Z,16.31
2022-09-02T00:27:28.400Z,16.24
2022-09-02T00:30:17.442Z,16.21
2022-09-02T00:33:06.777Z,16.11
2022-09-02T00:35:55.303Z,16.11
2022-09-02T00:38:43.827Z,16.06
2022-09-02T00:41:32.508Z,16.21
2022-09-02T00:44:22.836Z,16.08
2022-09-02T00:47:11.391Z,16.19
2022-09-02T00:50:00.564Z,16.13
2022-09-02T00:52:51.858Z,16.21
2022-09-02T00:55:44.834Z,16.27
2022-09-02T00:58:35.777Z,16.17
2022-09-02T01:01:25.777Z,16.26
2022-09-02T01:04:14.387Z,16.22
2022-09-02T01:07:03.351Z,16.19
2022-09-02T01:09:52.917Z,16.14
2022-09-02T01:12:42.378Z,16.05
2022-09-02T01:15:31.233Z,15.99
2022-09-02T01:18:25.202Z,16.02
2022-09-02T01:21:14.219Z,15.85
2022-09-02T01:24:04.584Z,15.76
2022-09-02T01:26:54.716Z,15.73
2022-09-02T01:29:43.269Z,15.90
2022-09-02T01:32:31.845Z,15.98
2022-09-02T01:35:20.546Z,15.93
2022-09-02T01:38:09.259Z,15.88
2022-09-02T01:40:59.292Z,15.85
2022-09-02T01:43:47.831Z,15.83
2022-09-02T01:46:37.333Z,15.76
2022-09-02T01:49:26.120Z,15.79
2022-09-02T01:52:15.469Z,15.64
2022-09-02T01:55:04.590Z,15.49
2022-09-02T01:57:54.533Z,15.34
2022-09-02T02:00:43.483Z,15.41
2022-09-02T02:03:32.468Z,15.35
2022-09-02T02:06:21.152Z,15.37
2022-09-02T02:09:09.826Z,15.31
2022-09-02T02:11:58.445Z,15.35
2022-09-02T02:14:48.517Z,15.30
2022-09-02T02:17:37.169Z,15.38
2022-09-02T02:20:27.062Z,15.33
2022-09-02T02:23:15.596Z,15.32
2022-09-02T02:26:04.195Z,15.33
2022-09-02T02:28:52.708Z,15.25
2022-09-02T02:31:43.403Z,15.21
2022-09-02T02:34:32.212Z,15.19
2022-09-02T02:37:25.241Z,15.23
2022-09-02T02:40:14.218Z,15.15
2022-09-02T02:43:02.767Z,15.14
2022-09-02T02:45:51.964Z,14.84
2022-09-02T02:48:42.220Z,14.89
2022-09-02T02:51:30.761Z,14.91
2022-09-02T02:54:19.321Z,14.93
2022-09-02T02:57:08.658Z,14.85
2022-09-02T02:59:58.037Z,14.94
2022-09-02T03:02:46.892Z,14.86
2022-09-02T03:05:38.869Z,14.64
2022-09-02T03:08:27.504Z,14.73
2022-09-02T03:11:16.152Z,14.81
2022-09-02T03:14:05.737Z,14.87
2022-09-02T03:16:54.360Z,14.82
2022-09-02T03:19:42.890Z,14.83
2022-09-02T03:22:32.884Z,14.81
2022-09-02T03:25:22.320Z,14.87
2022-09-02T03:28:11.105Z,14.74
2022-09-02T03:30:59.678Z,14.64
2022-09-02T03:33:48.580Z,14.68
2022-09-02T03:36:39.756Z,14.62
2022-09-02T03:39:29.770Z,14.66
2022-09-02T03:42:19.586Z,14.64
2022-09-02T03:45:11.301Z,14.53
2022-09-02T03:47:59.881Z,14.60
2022-09-02T03:50:48.400Z,14.52
2022-09-02T03:53:36.979Z,14.31
2022-09-02T03:56:27.227Z,14.30
2022-09-02T03:59:15.972Z,14.33
2022-09-02T04:02:04.868Z,14.24
2022-09-02T04:04:54.427Z,14.29
2022-09-02T04:07:43.046Z,14.17
2022-09-02T04:10:35.591Z,14.13
2022-09-02T04:13:25.515Z,14.32
2022-09-02T04:17:08.898Z,14.29
2022-09-02T04:20:52.364Z,14.27
2022-09-02T04:23:41.093Z,14.33
2022-09-02T04:26:29.978Z,14.33
2022-09-02T04:29:20.007Z,14.19
2022-09-02T04:32:08.575Z,14.21
2022-09-02T04:34:57.047Z,14.20
2022-09-02T04:37:47.199Z,13.30
2022-09-02T04:40:36.104Z,14.15
2022-09-02T04:43:25.079Z,14.11
2022-09-02T04:46:16.661Z,13.95
2022-09-02T04:49:06.134Z,14.06
2022-09-02T04:51:54.980Z,14.01
2022-09-02T04:54:43.516Z,13.98
2022-09-02T04:57:32.253Z,13.97
2022-09-02T05:00:21.156Z,13.93
2022-09-02T05:03:11.738Z,14.11
2022-09-02T05:06:01.805Z,14.08
2022-09-02T05:08:50.528Z,13.67
2022-09-02T05:11:39.233Z,13.78
2022-09-02T05:14:28.445Z,13.79
2022-09-02T05:17:19.515Z,13.97
2022-09-02T05:20:11.093Z,14.04
2022-09-02T05:22:59.632Z,14.13
2022-09-02T05:25:48.557Z,14.18
2022-09-02T05:28:37.712Z,14.25
2022-09-02T05:31:27.022Z,14.35
2022-09-02T05:34:16.107Z,14.33
2022-09-02T05:37:06.352Z,14.50
2022-09-02T05:39:55.159Z,14.58
2022-09-02T05:42:44.026Z,14.61
2022-09-02T05:45:33.351Z,14.89
2022-09-02T05:48:39.416Z,14.85
2022-09-02T05:51:30.088Z,15.22
2022-09-02T05:54:22.280Z,15.32
2022-09-02T05:57:14.227Z,15.28
2022-09-02T06:00:03.233Z,15.55
2022-09-02T06:02:52.280Z,15.69
2022-09-02T06:05:42.508Z,15.85
2022-09-02T06:08:31.025Z,15.89
2022-09-02T06:11:21.904Z,16.14
2022-09-02T06:14:10.420Z,16.32
2022-09-02T06:16:59.948Z,16.50
2022-09-02T06:19:48.473Z,16.75
2022-09-02T06:22:41.411Z,16.92
2022-09-02T06:25:29.963Z,17.24
2022-09-02T06:28:19.840Z,17.21
2022-09-02T06:31:09.742Z,17.39
2022-09-02T06:33:58.853Z,17.58
2022-09-02T06:36:49.177Z,17.81
2022-09-02T06:39:38.338Z,17.93
2022-09-02T06:42:27.467Z,18.09
2022-09-02T06:45:17.635Z,18.12
2022-09-02T06:48:07.689Z,18.19
2022-09-02T06:50:57.303Z,18.33
2022-09-02T06:53:45.936Z,18.44
2022-09-02T06:56:35.337Z,18.61
2022-09-02T06:59:23.947Z,18.64
2022-09-02T07:02:13.993Z,18.79
2022-09-02T07:05:10.908Z,18.86
2022-09-02T07:07:59.413Z,18.97
2022-09-02T07:10:47.972Z,18.94
2022-09-02T07:13:36.609Z,18.55
2022-09-02T07:16:26.912Z,19.50
2022-09-02T07:19:20.695Z,19.69
2022-09-02T07:22:09.467Z,19.91
2022-09-02T07:24:58.590Z,19.95
2022-09-02T07:27:47.139Z,20.10
2022-09-02T07:30:36.054Z,20.31
2022-09-02T07:33:24.629Z,20.22
2022-09-02T07:36:15.597Z,19.93
2022-09-02T07:39:04.974Z,19.82
2022-09-02T07:41:53.703Z,20.01
2022-09-02T07:44:42.496Z,19.93
2022-09-02T07:47:31.000Z,20.17
2022-09-02T07:50:21.498Z,19.96
2022-09-02T07:53:13.982Z,20.40
2022-09-02T07:56:03.722Z,20.29
2022-09-02T07:58:52.377Z,20.45
2022-09-02T08:04:36.980Z,20.81
2022-09-02T08:07:25.567Z,21.34
2022-09-02T08:10:17.128Z,21.18
2022-09-02T08:13:06.715Z,21.36
2022-09-02T08:15:55.545Z,21.36
2022-09-02T08:18:44.217Z,21.56
2022-09-02T08:21:33.009Z,21.44
2022-09-02T08:24:21.576Z,21.72
2022-09-02T08:27:11.605Z,22.09
2022-09-02T08:30:01.333Z,22.22
2022-09-02T08:32:49.891Z,22.14
2022-09-02T08:35:39.071Z,22.05
2022-09-02T08:38:28.066Z,21.55
2022-09-02T08:41:22.184Z,22.06
2022-09-02T08:44:16.052Z,22.17
2022-09-02T08:47:06.979Z,22.33
2022-09-02T08:49:58.694Z,21.79
2022-09-02T08:53:02.393Z,22.00
2022-09-02T08:58:47.039Z,22.19
2022-09-02T09:01:44.748Z,22.46
2022-09-02T09:04:44.038Z,22.59
2022-09-02T09:10:37.728Z,22.92
2022-09-02T09:14:02.149Z,22.87
2022-09-02T09:16:58.039Z,22.93
2022-09-02T09:19:50.556Z,22.39
2022-09-02T09:22:40.849Z,22.53
2022-09-02T09:25:30.807Z,22.40
2022-09-02T09:28:19.470Z,22.33
2022-09-02T09:31:11.261Z,22.78
2022-09-02T09:34:02.976Z,22.74
2022-09-02T09:36:53.733Z,22.78
2022-09-02T09:39:42.417Z,22.39
2022-09-02T09:42:33.602Z,22.37
2022-09-02T09:45:28.359Z,22.91
2022-09-02T09:48:27.642Z,22.99
2022-09-02T09:51:17.633Z,23.31
2022-09-02T09:54:16.929Z,23.58
2022-09-02T09:57:17.713Z,23.48
2022-09-02T10:00:18.143Z,23.18
2022-09-02T10:03:08.322Z,23.32
2022-09-02T10:05:58.346Z,23.21
2022-09-02T10:08:54.785Z,23.20
2022-09-02T10:11:56.621Z,23.59
2022-09-02T10:14:46.707Z,23.37
2022-09-02T10:17:41.173Z,23.61
2022-09-02T10:20:48.424Z,23.92
2022-09-02T10:23:48.122Z,23.09
2022-09-02T10:26:43.736Z,23.79
2022-09-02T10:29:43.829Z,24.17
2022-09-02T10:32:41.815Z,24.16
2022-09-02T10:35:35.993Z,24.20
2022-09-02T10:38:35.675Z,24.05
2022-09-02T10:41:35.047Z,24.11
2022-09-02T10:44:31.109Z,24.36
2022-09-02T10:47:30.727Z,24.26
2022-09-02T10:50:23.476Z,24.33
2022-09-02T10:53:25.244Z,24.53
2022-09-02T10:56:17.702Z,24.48
2022-09-02T10:59:09.529Z,24.66
2022-09-02T11:02:05.986Z,24.63
2022-09-02T11:04:59.328Z,24.66
2022-09-02T11:07:51.970Z,24.77
2022-09-02T11:10:43.439Z,24.53
2022-09-02T11:13:37.211Z,24.33
2022-09-02T11:16:28.998Z,24.46
2022-09-02T11:19:21.442Z,24.63
2022-09-02T11:22:18.959Z,24.72
2022-09-02T11:25:10.707Z,24.78
2022-09-02T11:28:07.386Z,24.69
2022-09-02T11:31:01.551Z,24.92
2022-09-02T11:33:54.775Z,24.96
2022-09-02T11:36:45.896Z,25.07
2022-09-02T11:39:54.051Z,25.14
2022-09-02T11:42:58.881Z,25.19
2022-09-02T11:46:12.212Z,25.29
2022-09-02T11:49:24.090Z,25.42
2022-09-02T11:52:30.056Z,25.70
2022-09-02T11:55:25.766Z,25.37
2022-09-02T11:58:31.893Z,25.28
2022-09-02T12:01:25.503Z,25.50
2022-09-02T12:07:32.731Z,25.12
2022-09-02T12:11:01.213Z,25.50
2022-09-02T12:16:43.673Z,26.09
2022-09-02T12:19:43.871Z,25.35
2022-09-02T12:22:42.126Z,25.73
2022-09-02T12:25:44.753Z,25.92
2022-09-02T12:28:33.577Z,26.08
2022-09-02T12:31:41.111Z,25.92
2022-09-02T12:34:56.742Z,26.16
2022-09-02T12:37:55.518Z,26.14
2022-09-02T12:40:58.683Z,25.40
2022-09-02T12:43:58.965Z,26.09
2022-09-02T12:47:05.909Z,26.12
2022-09-02T12:50:03.513Z,25.88
2022-09-02T12:53:10.200Z,25.87
2022-09-02T12:56:01.745Z,26.07
2022-09-02T12:58:53.203Z,26.19
2022-09-02T13:01:46.434Z,26.01
2022-09-02T13:04:40.249Z,25.94
2022-09-02T13:08:02.306Z,25.83
2022-09-02T13:10:57.481Z,25.93
2022-09-02T13:14:19.974Z,26.01
2022-09-02T13:17:50.724Z,26.28
2022-09-02T13:20:52.480Z,26.26
2022-09-02T13:24:10.201Z,26.31
2022-09-02T13:27:30.858Z,26.08
2022-09-02T13:30:22.026Z,26.32
2022-09-02T13:33:11.587Z,26.19
2022-09-02T13:36:00.719Z,26.06
2022-09-02T13:38:49.532Z,26.35
2022-09-02T13:41:39.548Z,26.56
2022-09-02T13:44:29.553Z,26.48
2022-09-02T13:47:20.700Z,26.54
2022-09-02T13:50:10.320Z,26.63
2022-09-02T13:56:12.246Z,26.37
2022-09-02T13:59:02.267Z,26.33
2022-09-02T14:01:51.167Z,26.34
2022-09-02T14:04:40.369Z,26.43
2022-09-02T14:07:34.303Z,26.53
2022-09-02T14:10:24.611Z,26.50
2022-09-02T14:13:14.076Z,26.56
2022-09-02T14:16:26.946Z,26.51
2022-09-02T14:19:25.236Z,26.31
2022-09-02T14:22:23.975Z,26.29
2022-09-02T14:25:14.348Z,26.18
2022-09-02T14:28:13.447Z,26.23
2022-09-02T14:31:03.625Z,26.44
2022-09-02T14:33:54.872Z,26.57
2022-09-02T14:36:43.636Z,26.44
2022-09-02T14:39:32.209Z,26.59
2022-09-02T14:42:20.924Z,26.36
2022-09-02T14:45:11.483Z,26.42
2022-09-02T14:48:03.018Z,26.39
2022-09-02T14:51:02.430Z,26.38
2022-09-02T14:53:51.547Z,26.36
2022-09-02T14:56:48.471Z,26.07
2022-09-02T14:59:37.284Z,26.30
2022-09-02T15:02:32.070Z,26.09
2022-09-02T15:05:22.077Z,26.30
2022-09-02T15:08:12.277Z,26.30
2022-09-02T15:11:01.635Z,26.36
2022-09-02T15:13:50.317Z,26.29
2022-09-02T15:16:39.053Z,26.36
2022-09-02T15:19:27.666Z,26.27
2022-09-02T15:22:17.032Z,26.28
2022-09-02T15:25:10.653Z,26.46
2022-09-02T15:27:59.666Z,26.31
2022-09-02T15:30:48.253Z,26.39
2022-09-02T15:33:37.485Z,26.28
2022-09-02T15:36:27.605Z,26.14
2022-09-02T15:39:16.441Z,25.94
2022-09-02T15:42:07.135Z,26.02
2022-09-02T15:44:55.880Z,25.92
2022-09-02T15:47:44.446Z,25.97
2022-09-02T15:50:33.906Z,25.90
2022-09-02T15:53:23.290Z,25.86
2022-09-02T15:56:19.156Z,25.79
2022-09-02T15:59:10.452Z,25.84
2022-09-02T16:02:00.528Z,25.82
2022-09-02T16:04:49.187Z,25.71
2022-09-02T16:07:37.882Z,25.78
2022-09-02T16:10:26.542Z,25.77
2022-09-02T16:13:15.280Z,25.71
2022-09-02T16:16:07.440Z,25.48
2022-09-02T16:18:56.099Z,25.40
2022-09-02T16:21:44.752Z,25.32
2022-09-02T16:24:33.443Z,25.25
2022-09-02T16:27:41.950Z,25.22
2022-09-02T16:30:31.045Z,25.34
2022-09-02T16:33:21.613Z,25.25
2022-09-02T16:36:10.368Z,25.07
2022-09-02T16:39:00.664Z,25.10
2022-09-02T16:41:51.613Z,25.00
2022-09-02T16:44:41.757Z,25.00
2022-09-02T16:47:31.862Z,24.91
2022-09-02T16:50:21.908Z,24.96
2022-09-02T16:53:11.133Z,24.89
2022-09-02T16:56:00.546Z,24.80
2022-09-02T16:58:49.226Z,24.77
2022-09-02T17:01:38.389Z,24.81
2022-09-02T17:04:27.051Z,24.71
2022-09-02T17:07:16.980Z,24.79
2022-09-02T17:10:06.512Z,24.83
2022-09-02T17:12:55.111Z,24.76
2022-09-02T17:15:43.669Z,24.74
2022-09-02T17:18:32.251Z,24.66
2022-09-02T17:21:26.503Z,24.59
2022-09-02T17:24:16.566Z,24.51
2022-09-02T17:27:05.553Z,24.36
2022-09-02T17:29:54.665Z,24.26
2022-09-02T17:32:43.614Z,24.23
2022-09-02T17:35:32.148Z,24.19
2022-09-02T17:38:23.170Z,24.03
2022-09-02T17:41:34.521Z,23.85
2022-09-02T17:44:24.286Z,23.83
2022-09-02T17:47:15.094Z,23.77
2022-09-02T17:50:05.490Z,23.61
2022-09-02T17:52:54.011Z,23.53
2022-09-02T17:55:42.702Z,23.42
2022-09-02T17:58:39.203Z,23.36
2022-09-02T18:01:29.185Z,23.26
2022-09-02T18:04:25.961Z,23.16
2022-09-02T18:07:23.832Z,23.18
2022-09-02T18:10:13.313Z,22.38
2022-09-02T18:13:05.557Z,22.21
2022-09-02T18:16:00.467Z,22.82
2022-09-02T18:18:53.559Z,22.84
2022-09-02T18:22:00.318Z,22.71
2022-09-02T18:25:04.946Z,22.67
2022-09-02T18:28:00.165Z,22.27
2022-09-02T18:30:54.593Z,22.24
2022-09-02T18:33:57.512Z,22.32
2022-09-02T18:36:50.705Z,22.20
2022-09-02T18:39:50.042Z,21.58
2022-09-02T18:42:45.299Z,22.02
2022-09-02T18:45:36.062Z,22.13
2022-09-02T18:48:27.992Z,22.03
2022-09-02T18:51:25.048Z,21.99
2022-09-02T18:54:17.321Z,21.88
2022-09-02T18:57:08.570Z,21.79
2022-09-02T19:00:02.451Z,21.72
2022-09-02T19:02:52.363Z,21.67
2022-09-02T19:05:40.906Z,21.54
2022-09-02T19:08:32.720Z,21.31
2022-09-02T19:11:25.719Z,21.20
2022-09-02T19:14:24.237Z,21.29
2022-09-02T19:17:12.850Z,21.26
2022-09-02T19:20:01.409Z,21.24
2022-09-02T19:22:52.640Z,21.16
2022-09-02T19:25:44.191Z,21.17
2022-09-02T19:28:34.422Z,21.16
2022-09-02T19:31:25.304Z,21.05
2022-09-02T19:34:16.231Z,20.97
2022-09-02T19:37:05.762Z,21.10
2022-09-02T19:39:54.905Z,20.92
2022-09-02T19:42:45.016Z,20.97
2022-09-02T19:45:36.100Z,20.73
2022-09-02T19:48:24.834Z,20.84
2022-09-02T19:51:15.433Z,20.68
2022-09-02T19:54:04.001Z,20.80
2022-09-02T19:56:52.985Z,20.77
2022-09-02T19:59:42.923Z,20.43
2022-09-02T20:02:31.577Z,20.75
2022-09-02T20:05:21.558Z,20.70
2022-09-02T20:08:10.202Z,20.67
2022-09-02T20:11:00.339Z,20.63
2022-09-02T20:13:49.967Z,20.65
2022-09-02T20:16:39.991Z,20.62
2022-09-02T20:19:28.682Z,20.56
2022-09-02T20:22:18.458Z,20.50
2022-09-02T20:25:07.428Z,20.48
2022-09-02T20:28:04.227Z,20.43
2022-09-02T20:31:03.176Z,20.41
2022-09-02T20:33:57.055Z,20.46
2022-09-02T20:36:52.174Z,20.37
2022-09-02T20:39:50.115Z,20.33
2022-09-02T20:43:03.067Z,20.23
2022-09-02T20:45:56.521Z,20.11
2022-09-02T20:48:57.700Z,20.19
2022-09-02T20:51:51.880Z,20.17
2022-09-02T20:54:42.816Z,20.11
2022-09-02T20:57:38.965Z,20.11
2022-09-02T21:00:27.752Z,20.04
2022-09-02T21:03:17.521Z,20.13
2022-09-02T21:06:10.904Z,20.12
2022-09-02T21:09:04.384Z,20.01
2022-09-02T21:11:58.557Z,20.03
2022-09-02T21:14:48.478Z,20.02
2022-09-02T21:17:44.204Z,20.14
2022-09-02T21:20:44.208Z,20.14
2022-09-02T21:23:38.444Z,20.16
2022-09-02T21:26:44.505Z,20.04
2022-09-02T21:29:41.740Z,19.83
2022-09-02T21:32:35.688Z,19.81
2022-09-02T21:35:26.816Z,19.90
2022-09-02T21:38:16.965Z,19.87
2022-09-02T21:41:30.338Z,19.92
2022-09-02T21:44:25.854Z,19.72
2022-09-02T21:47:21.239Z,19.84
2022-09-02T21:50:21.502Z,19.84
2022-09-02T21:53:16.806Z,19.93
2022-09-02T21:56:27.629Z,19.89
2022-09-02T21:59:26.589Z,19.81
2022-09-02T22:02:20.139Z,19.99
2022-09-02T22:05:16.799Z,19.82
2022-09-02T22:08:09.677Z,19.84
2022-09-02T22:11:05.942Z,19.96
2022-09-02T22:13:57.935Z,19.07
2022-09-02T22:16:53.689Z,19.94
2022-09-02T22:19:43.169Z,19.83
2022-09-02T22:22:33.771Z,19.95
2022-09-02T22:25:23.302Z,19.98
2022-09-02T22:28:15.758Z,20.11
2022-09-02T22:31:10.998Z,20.04
2022-09-02T22:34:00.810Z,20.12
2022-09-02T22:36:56.338Z,20.18
2022-09-02T22:39:49.721Z,20.13
2022-09-02T22:42:40.033Z,20.08
2022-09-02T22:45:49.206Z,20.28
2022-09-02T22:48:59.194Z,20.20
2022-09-02T22:52:08.993Z,20.26
2022-09-02T22:54:57.701Z,20.21
2022-09-02T22:57:56.263Z,20.21
2022-09-02T23:00:49.773Z,20.21
2022-09-02T23:03:44.709Z,20.19
2022-09-02T23:06:34.223Z,20.19
2022-09-02T23:09:22.769Z,20.16
2022-09-02T23:12:27.636Z,20.23
2022-09-02T23:15:24.689Z,20.27
2022-09-02T23:18:19.045Z,20.26
2022-09-02T23:21:16.776Z,20.27
2022-09-02T23:24:13.131Z,20.16
2022-09-02T23:27:07.904Z,20.22
2022-09-02T23:29:56.415Z,20.26
2022-09-02T23:32:56.910Z,20.29
2022-09-02T23:35:48.180Z,20.05
2022-09-02T23:39:08.027Z,20.36
2022-09-02T23:42:00.673Z,20.25
2022-09-02T23:44:50.373Z,20.27
2022-09-02T23:47:44.212Z,20.38
2022-09-02T23:50:47.011Z,20.27
2022-09-02T23:53:40.334Z,20.26
2022-09-02T23:56:41.985Z,20.18
2022-09-02T23:59:51.427Z,20.26
